Change the Weather History Date:

Sunday, February 24, 2013

  Actual Average (KMWL) Record (KMWL)
Temperature  
Mean Temperature 54 °F -  
Max Temperature 70 °F 58 °F 88 °F (2009)
Min Temperature 38 °F 37 °F 17 °F (2003)
Degree Days  
Heating Degree Days 11    
Growing Degree Days 4 (Base 50)    
Moisture  
Dew Point 37 °F    
Average Humidity 52    
Maximum Humidity 75    
Minimum Humidity 32    
Precipitation  
Precipitation 0.00 in - - ()
Sea Level Pressure  
Sea Level Pressure 29.72 in    
Wind  
Wind Speed 11 mph (SE)    
Max Wind Speed 20 mph    
Max Gust Speed 34 mph    
Visibility 10 miles    
Events      
Averages and records for this station are not official NWS values.
T = Trace of Precipitation, MM = Missing Value Source: NWS Daily Summary

Daily Weather History Graph

Daily Weather History Graph

Search for Another Location

Airport or City:

Trip Planner

Search our weather history database for the weather conditions in past years. The results will help you decide how hot, cold, wet, or windy it might be!

Date:

Astronomy

Feb. 24, 2013 Rise Set
Actual Time 7:07 AM CST 6:27 PM CST
Civil Twilight 6:42 AM CST 6:52 PM CST
Nautical Twilight 6:14 AM CST 7:21 PM CST
Astronomical Twilight 5:45 AM CST 7:49 PM CST
Moon 5:39 PM CST (2/24) 6:04 AM CST (2/24)
Length of Visible Light 12h 09m
Length of Day
11h 19m
Waxing Gibbous, 99% of the Moon is Illuminated
Feb 24
Waxing Gibbous
Feb 25
Full
Mar 4
Last Quarter
Mar 11
New
Mar 19
First Quarter

Hourly Weather History & Observations

Time (CST) Temp. Windchill Dew Point Humidity Pressure Visibility Wind Dir Wind Speed Gust Speed Precip Events Conditions
12:15 AM 41.9 °F 36.3 °F 30.2 °F 63% 29.85 in 10.0 mi ESE 9.2 mph - N/A   Clear
12:35 AM 41.9 °F 36.3 °F 30.6 °F 64% 29.86 in 10.0 mi ESE 9.2 mph - N/A   Clear
12:55 AM 41.5 °F 36.4 °F 30.6 °F 65% 29.85 in 10.0 mi SE 8.1 mph - N/A   Clear
1:15 AM 41.5 °F 35.0 °F 30.7 °F 65% 29.85 in 10.0 mi SE 11.5 mph 17.3 mph N/A   Clear
1:35 AM 41.2 °F 35.5 °F 30.9 °F 67% 29.85 in 10.0 mi SE 9.2 mph 17.3 mph N/A   Clear
1:55 AM 41.0 °F 34.7 °F 31.1 °F 68% 29.85 in 10.0 mi SE 10.4 mph 17.3 mph N/A   Clear
2:15 AM 40.5 °F 34.1 °F 31.1 °F 69% 29.85 in 10.0 mi SE 10.4 mph 17.3 mph N/A   Clear
2:35 AM 40.5 °F 34.6 °F 31.1 °F 69% 29.84 in 10.0 mi SE 9.2 mph - N/A   Clear
2:55 AM 39.7 °F 34.3 °F 31.1 °F 71% 29.84 in 10.0 mi SE 8.1 mph - N/A   Clear
3:15 AM 39.6 °F 34.0 °F 31.1 °F 72% 29.84 in 10.0 mi SE 8.1 mph - N/A   Clear
3:35 AM 39.2 °F 34.2 °F 31.1 °F 73% 29.83 in 10.0 mi SE 6.9 mph - N/A   Clear
3:55 AM 38.7 °F 35.2 °F 31.3 °F 75% 29.83 in 10.0 mi SE 4.6 mph - N/A   Clear
4:15 AM 39.0 °F 34.0 °F 31.3 °F 74% 29.83 in 10.0 mi SE 6.9 mph - N/A   Clear
4:35 AM 40.1 °F 35.3 °F 31.6 °F 72% 29.82 in 10.0 mi SE 6.9 mph - N/A   Clear
4:55 AM 40.5 °F 34.6 °F 31.6 °F 71% 29.82 in 10.0 mi SE 9.2 mph - N/A   Clear
5:15 AM 41.0 °F 35.8 °F 31.6 °F 69% 29.81 in 10.0 mi SE 8.1 mph - N/A   Clear
5:35 AM 40.1 °F 34.7 °F 31.3 °F 71% 29.81 in 10.0 mi SE 8.1 mph - N/A   Clear
5:55 AM 39.6 °F 33.5 °F 31.5 °F 73% 29.82 in 10.0 mi SE 9.2 mph - N/A   Clear
6:15 AM 39.2 °F 33.0 °F 31.1 °F 73% 29.82 in 10.0 mi SE 9.2 mph - N/A   Clear
6:35 AM 39.2 °F 34.2 °F 31.1 °F 73% 29.83 in 10.0 mi SE 6.9 mph - N/A   Clear
7:15 AM 39.4 °F 35.2 °F 30.7 °F 71% 29.83 in 10.0 mi SE 5.8 mph - N/A   Clear
7:35 AM 41.2 °F 35.0 °F 30.6 °F 66% 29.82 in 10.0 mi SE 10.4 mph - N/A   Clear
7:55 AM 42.4 °F 37.5 °F 31.1 °F 64% 29.83 in 10.0 mi ESE 8.1 mph - N/A   Clear
8:15 AM 44.4 °F 38.2 °F 31.6 °F 61% 29.83 in 10.0 mi SE 12.7 mph - N/A   Clear
8:35 AM 46.4 °F 41.5 °F 32.0 °F 57% 29.82 in 10.0 mi SE 10.4 mph - N/A   Clear
8:55 AM 48.9 °F - 33.1 °F 54% 29.82 in 10.0 mi SE 12.7 mph 16.1 mph N/A   Clear
9:15 AM 51.4 °F - 34.2 °F 52% 29.82 in 10.0 mi SE 13.8 mph 21.9 mph N/A   Clear
9:35 AM 52.9 °F - 35.4 °F 52% 29.82 in 10.0 mi SSE 15.0 mph 21.9 mph N/A   Clear
9:55 AM 54.5 °F - 35.8 °F 49% 29.82 in 10.0 mi SSE 13.8 mph 28.8 mph N/A   Clear
10:15 AM 55.8 °F - 36.3 °F 48% 29.81 in 10.0 mi SE 13.8 mph 23.0 mph N/A   Clear
10:35 AM 57.4 °F - 36.5 °F 46% 29.81 in 10.0 mi SSE 16.1 mph 25.3 mph N/A   Clear
10:55 AM 59.0 °F - 37.9 °F 46% 29.80 in 10.0 mi SSE 13.8 mph 21.9 mph N/A   Clear
11:15 AM 60.8 °F - 38.5 °F 44% 29.79 in 10.0 mi SE 10.4 mph 23.0 mph N/A   Clear
11:35 AM 62.2 °F - 39.0 °F 42% 29.78 in 10.0 mi SE 12.7 mph 21.9 mph N/A   Clear
11:55 AM 63.9 °F - 37.8 °F 38% 29.78 in 10.0 mi SSE 18.4 mph 28.8 mph N/A   Clear
12:15 PM 64.9 °F - 37.0 °F 36% 29.76 in 10.0 mi SSE 18.4 mph 27.6 mph N/A   Clear
12:35 PM 65.7 °F - 37.4 °F 35% 29.74 in 10.0 mi SE 17.3 mph 26.5 mph N/A   Clear
12:55 PM 66.2 °F - 37.8 °F 35% 29.73 in 10.0 mi SSE 16.1 mph 26.5 mph N/A   Clear
1:15 PM 67.3 °F - 37.9 °F 34% 29.71 in 10.0 mi SE 16.1 mph 25.3 mph N/A   Clear
1:35 PM 68.0 °F - 37.8 °F 33% 29.71 in 10.0 mi SE 16.1 mph 25.3 mph N/A   Clear
1:55 PM 68.7 °F - 39.0 °F 34% 29.70 in 10.0 mi SSE 15.0 mph - N/A   Clear
2:15 PM 68.9 °F - 38.8 °F 33% 29.68 in 10.0 mi SE 12.7 mph 21.9 mph N/A   Clear
2:35 PM 70.0 °F - 39.4 °F 33% 29.67 in 10.0 mi SE 17.3 mph 21.9 mph N/A   Clear
2:55 PM 70.9 °F - 39.4 °F 32% 29.66 in 10.0 mi SE 12.7 mph 21.9 mph N/A   Clear
3:15 PM 70.0 °F - 39.6 °F 33% 29.65 in 10.0 mi SE 13.8 mph 23.0 mph N/A   Clear
3:35 PM 70.9 °F - 39.6 °F 32% 29.64 in 10.0 mi SSE 15.0 mph 24.2 mph N/A   Clear
3:55 PM 70.9 °F - 39.4 °F 32% 29.64 in 10.0 mi SE 13.8 mph 23.0 mph N/A   Clear
4:15 PM 70.7 °F - 39.4 °F 32% 29.63 in 10.0 mi SE 16.1 mph 24.2 mph N/A   Clear
4:35 PM 70.5 °F - 39.7 °F 33% 29.62 in 10.0 mi SE 15.0 mph 20.7 mph N/A   Clear
4:55 PM 70.0 °F - 39.6 °F 33% 29.61 in 10.0 mi SE 16.1 mph 23.0 mph N/A   Clear
5:15 PM 69.6 °F - 40.1 °F 34% 29.61 in 10.0 mi SSE 16.1 mph 21.9 mph N/A   Clear
5:35 PM 68.9 °F - 39.6 °F 34% 29.61 in 10.0 mi SE 17.3 mph 25.3 mph N/A   Clear
5:55 PM 68.0 °F - 39.2 °F 35% 29.61 in 10.0 mi SE 13.8 mph 24.2 mph N/A   Clear
6:15 PM 66.6 °F - 39.2 °F 37% 29.61 in 10.0 mi ESE 10.4 mph 23.0 mph N/A   Clear
6:35 PM 65.1 °F - 40.1 °F 40% 29.61 in 10.0 mi ESE 12.7 mph 17.3 mph N/A   Clear
6:55 PM 64.4 °F - 40.8 °F 42% 29.61 in 10.0 mi ESE 9.2 mph 17.3 mph N/A   Clear
7:15 PM 63.5 °F - 41.9 °F 45% 29.62 in 10.0 mi ESE 11.5 mph 17.3 mph N/A   Clear
7:35 PM 62.1 °F - 42.4 °F 49% 29.61 in 10.0 mi East 10.4 mph 19.6 mph N/A   Clear
7:55 PM 61.7 °F - 42.4 °F 49% 29.61 in 10.0 mi East 11.5 mph 20.7 mph N/A   Clear
8:15 PM 61.2 °F - 42.3 °F 50% 29.61 in 10.0 mi ESE 12.7 mph 19.6 mph N/A   Clear
8:35 PM 60.8 °F - 42.3 °F 50% 29.60 in 10.0 mi ESE 13.8 mph 23.0 mph N/A   Clear
8:55 PM 60.4 °F - 42.3 °F 51% 29.59 in 10.0 mi ESE 15.0 mph 23.0 mph N/A   Clear
9:15 PM 59.9 °F - 42.1 °F 52% 29.59 in 10.0 mi ESE 12.7 mph 18.4 mph N/A   Clear
9:35 PM 59.5 °F - 41.9 °F 52% 29.58 in 10.0 mi ESE 15.0 mph 29.9 mph N/A   Clear
9:55 PM 59.4 °F - 41.5 °F 52% 29.56 in 10.0 mi ESE 18.4 mph 27.6 mph N/A   Clear
10:15 PM 59.4 °F - 41.9 °F 52% 29.55 in 10.0 mi ESE 17.3 mph 28.8 mph N/A   Clear
10:35 PM 59.4 °F - 41.9 °F 52% 29.54 in 10.0 mi SE 18.4 mph 33.4 mph N/A   Clear
10:55 PM 58.5 °F - 42.1 °F 55% 29.50 in 10.0 mi SE 19.6 mph 34.5 mph N/A   Clear
11:15 PM 57.7 °F - 42.6 °F 57% 29.53 in 10.0 mi SE 15.0 mph 27.6 mph N/A   Clear
11:35 PM 57.6 °F - 43.0 °F 58% 29.54 in 10.0 mi SE 12.7 mph 20.7 mph N/A   Scattered Clouds
11:55 PM 57.4 °F - 43.7 °F 60% 29.53 in 10.0 mi SE 12.7 mph 18.4 mph N/A   Scattered Clouds